sensor_id;sensor_type;location;lat;lon;timestamp;P1;durP1;ratioP1;P2;durP2;ratioP2
68275;SDS011;55106;51.438;-0.098;2022-09-25T00:00:34;7.20;;;2.08;;
68275;SDS011;55106;51.438;-0.098;2022-09-25T00:03:01;7.17;;;1.90;;
68275;SDS011;55106;51.438;-0.098;2022-09-25T00:05:26;7.53;;;1.90;;
68275;SDS011;55106;51.438;-0.098;2022-09-25T00:07:52;8.43;;;2.10;;
68275;SDS011;55106;51.438;-0.098;2022-09-25T00:10:19;8.90;;;2.03;;
68275;SDS011;55106;51.438;-0.098;2022-09-25T00:12:44;9.93;;;2.70;;
68275;SDS011;55106;51.438;-0.098;2022-09-25T00:15:10;6.33;;;2.07;;
68275;SDS011;55106;51.438;-0.098;2022-09-25T00:17:35;9.77;;;2.05;;
68275;SDS011;55106;51.438;-0.098;2022-09-25T00:20:01;5.83;;;2.00;;
68275;SDS011;55106;51.438;-0.098;2022-09-25T00:22:26;9.03;;;1.93;;
68275;SDS011;55106;51.438;-0.098;2022-09-25T00:24:52;7.22;;;2.45;;
68275;SDS011;55106;51.438;-0.098;2022-09-25T00:27:18;6.30;;;2.03;;
68275;SDS011;55106;51.438;-0.098;2022-09-25T00:29:43;7.63;;;2.30;;
68275;SDS011;55106;51.438;-0.098;2022-09-25T00:32:09;7.30;;;2.20;;
68275;SDS011;55106;51.438;-0.098;2022-09-25T00:34:36;7.28;;;2.63;;
68275;SDS011;55106;51.438;-0.098;2022-09-25T00:37:02;11.60;;;2.53;;
68275;SDS011;55106;51.438;-0.098;2022-09-25T00:39:28;11.33;;;2.20;;
68275;SDS011;55106;51.438;-0.098;2022-09-25T00:41:55;5.38;;;2.20;;
68275;SDS011;55106;51.438;-0.098;2022-09-25T00:47:16;8.27;;;2.38;;
68275;SDS011;55106;51.438;-0.098;2022-09-25T00:49:47;6.85;;;2.28;;
68275;SDS011;55106;51.438;-0.098;2022-09-25T00:52:12;7.60;;;1.93;;
68275;SDS011;55106;51.438;-0.098;2022-09-25T00:54:39;9.18;;;2.42;;
68275;SDS011;55106;51.438;-0.098;2022-09-25T00:57:11;7.35;;;2.03;;
68275;SDS011;55106;51.438;-0.098;2022-09-25T00:59:45;8.23;;;2.47;;
68275;SDS011;55106;51.438;-0.098;2022-09-25T01:02:16;7.15;;;2.15;;
68275;SDS011;55106;51.438;-0.098;2022-09-25T01:04:45;7.05;;;1.90;;
68275;SDS011;55106;51.438;-0.098;2022-09-25T01:07:11;8.05;;;2.22;;
68275;SDS011;55106;51.438;-0.098;2022-09-25T01:09:37;13.53;;;2.43;;
68275;SDS011;55106;51.438;-0.098;2022-09-25T01:12:02;7.73;;;2.20;;
68275;SDS011;55106;51.438;-0.098;2022-09-25T01:14:29;6.93;;;1.65;;
68275;SDS011;55106;51.438;-0.098;2022-09-25T01:23:00;8.95;;;2.42;;
68275;SDS011;55106;51.438;-0.098;2022-09-25T01:30:49;8.23;;;2.20;;
68275;SDS011;55106;51.438;-0.098;2022-09-25T01:33:39;10.20;;;2.20;;
68275;SDS011;55106;51.438;-0.098;2022-09-25T01:36:34;7.50;;;2.17;;
68275;SDS011;55106;51.438;-0.098;2022-09-25T01:39:02;7.03;;;1.95;;
68275;SDS011;55106;51.438;-0.098;2022-09-25T01:41:36;8.27;;;2.30;;
68275;SDS011;55106;51.438;-0.098;2022-09-25T01:44:09;8.60;;;2.10;;
68275;SDS011;55106;51.438;-0.098;2022-09-25T01:46:39;8.55;;;2.42;;
68275;SDS011;55106;51.438;-0.098;2022-09-25T01:49:11;7.15;;;2.40;;
68275;SDS011;55106;51.438;-0.098;2022-09-25T01:51:42;7.65;;;2.15;;
68275;SDS011;55106;51.438;-0.098;2022-09-25T01:54:56;8.38;;;2.58;;
68275;SDS011;55106;51.438;-0.098;2022-09-25T01:57:12;7.93;;;1.87;;
68275;SDS011;55106;51.438;-0.098;2022-09-25T02:02:34;7.78;;;2.30;;
68275;SDS011;55106;51.438;-0.098;2022-09-25T02:05:06;9.45;;;2.17;;
68275;SDS011;55106;51.438;-0.098;2022-09-25T02:07:34;9.13;;;2.17;;
68275;SDS011;55106;51.438;-0.098;2022-09-25T02:10:11;9.30;;;2.30;;
68275;SDS011;55106;51.438;-0.098;2022-09-25T02:12:44;7.57;;;2.53;;
68275;SDS011;55106;51.438;-0.098;2022-09-25T02:15:13;9.45;;;2.28;;
68275;SDS011;55106;51.438;-0.098;2022-09-25T02:20:34;8.93;;;2.10;;
68275;SDS011;55106;51.438;-0.098;2022-09-25T02:23:09;9.07;;;2.30;;
68275;SDS011;55106;51.438;-0.098;2022-09-25T02:26:06;9.85;;;2.25;;
68275;SDS011;55106;51.438;-0.098;2022-09-25T02:28:36;10.45;;;2.03;;
68275;SDS011;55106;51.438;-0.098;2022-09-25T02:31:03;8.50;;;2.10;;
68275;SDS011;55106;51.438;-0.098;2022-09-25T02:33:32;9.05;;;2.40;;
68275;SDS011;55106;51.438;-0.098;2022-09-25T02:35:58;7.82;;;2.20;;
68275;SDS011;55106;51.438;-0.098;2022-09-25T02:38:27;9.55;;;2.10;;
68275;SDS011;55106;51.438;-0.098;2022-09-25T02:40:59;6.30;;;1.90;;
68275;SDS011;55106;51.438;-0.098;2022-09-25T02:43:51;12.38;;;2.67;;
68275;SDS011;55106;51.438;-0.098;2022-09-25T02:46:47;7.80;;;2.03;;
68275;SDS011;55106;51.438;-0.098;2022-09-25T02:49:24;10.90;;;2.20;;
68275;SDS011;55106;51.438;-0.098;2022-09-25T02:52:26;10.90;;;2.70;;
68275;SDS011;55106;51.438;-0.098;2022-09-25T02:55:27;10.23;;;3.00;;
68275;SDS011;55106;51.438;-0.098;2022-09-25T02:57:55;7.00;;;2.17;;
68275;SDS011;55106;51.438;-0.098;2022-09-25T03:00:25;8.68;;;2.28;;
68275;SDS011;55106;51.438;-0.098;2022-09-25T03:02:53;7.38;;;2.28;;
68275;SDS011;55106;51.438;-0.098;2022-09-25T03:05:23;9.88;;;2.20;;
68275;SDS011;55106;51.438;-0.098;2022-09-25T03:07:50;8.17;;;2.60;;
68275;SDS011;55106;51.438;-0.098;2022-09-25T03:10:35;9.85;;;2.60;;
68275;SDS011;55106;51.438;-0.098;2022-09-25T03:13:18;19.85;;;2.97;;
68275;SDS011;55106;51.438;-0.098;2022-09-25T03:15:51;9.18;;;2.28;;
68275;SDS011;55106;51.438;-0.098;2022-09-25T03:18:23;11.20;;;2.22;;
68275;SDS011;55106;51.438;-0.098;2022-09-25T03:20:49;6.73;;;2.37;;
68275;SDS011;55106;51.438;-0.098;2022-09-25T03:23:14;7.07;;;2.03;;
68275;SDS011;55106;51.438;-0.098;2022-09-25T03:25:39;9.27;;;2.40;;
68275;SDS011;55106;51.438;-0.098;2022-09-25T03:28:08;6.83;;;1.97;;
68275;SDS011;55106;51.438;-0.098;2022-09-25T03:30:35;5.13;;;2.05;;
68275;SDS011;55106;51.438;-0.098;2022-09-25T03:33:05;10.30;;;2.40;;
68275;SDS011;55106;51.438;-0.098;2022-09-25T03:35:34;9.65;;;2.28;;
68275;SDS011;55106;51.438;-0.098;2022-09-25T03:38:01;9.45;;;2.30;;
68275;SDS011;55106;51.438;-0.098;2022-09-25T03:40:26;10.33;;;2.60;;
68275;SDS011;55106;51.438;-0.098;2022-09-25T03:42:52;9.00;;;2.60;;
68275;SDS011;55106;51.438;-0.098;2022-09-25T03:45:18;9.97;;;2.90;;
68275;SDS011;55106;51.438;-0.098;2022-09-25T03:47:43;7.70;;;2.35;;
68275;SDS011;55106;51.438;-0.098;2022-09-25T03:50:08;10.03;;;2.40;;
68275;SDS011;55106;51.438;-0.098;2022-09-25T03:52:34;8.40;;;2.00;;
68275;SDS011;55106;51.438;-0.098;2022-09-25T03:54:59;12.30;;;2.57;;
68275;SDS011;55106;51.438;-0.098;2022-09-25T03:57:25;10.30;;;2.00;;
68275;SDS011;55106;51.438;-0.098;2022-09-25T03:59:50;6.20;;;2.37;;
68275;SDS011;55106;51.438;-0.098;2022-09-25T04:02:16;8.03;;;2.10;;
68275;SDS011;55106;51.438;-0.098;2022-09-25T04:04:41;7.78;;;2.20;;
68275;SDS011;55106;51.438;-0.098;2022-09-25T04:07:09;8.43;;;2.53;;
68275;SDS011;55106;51.438;-0.098;2022-09-25T04:09:35;9.10;;;2.40;;
68275;SDS011;55106;51.438;-0.098;2022-09-25T04:12:01;6.80;;;2.20;;
68275;SDS011;55106;51.438;-0.098;2022-09-25T04:14:26;6.80;;;2.73;;
68275;SDS011;55106;51.438;-0.098;2022-09-25T04:16:52;5.73;;;2.10;;
68275;SDS011;55106;51.438;-0.098;2022-09-25T04:19:17;10.63;;;2.87;;
68275;SDS011;55106;51.438;-0.098;2022-09-25T04:21:42;12.30;;;2.73;;
68275;SDS011;55106;51.438;-0.098;2022-09-25T04:24:08;11.02;;;2.25;;
68275;SDS011;55106;51.438;-0.098;2022-09-25T04:26:53;7.97;;;2.43;;
68275;SDS011;55106;51.438;-0.098;2022-09-25T04:29:18;8.35;;;2.83;;
68275;SDS011;55106;51.438;-0.098;2022-09-25T04:31:45;8.40;;;2.60;;
68275;SDS011;55106;51.438;-0.098;2022-09-25T04:34:30;9.45;;;2.38;;
68275;SDS011;55106;51.438;-0.098;2022-09-25T04:36:56;9.37;;;2.87;;
68275;SDS011;55106;51.438;-0.098;2022-09-25T04:39:21;8.27;;;2.47;;
68275;SDS011;55106;51.438;-0.098;2022-09-25T04:41:46;9.43;;;2.60;;
68275;SDS011;55106;51.438;-0.098;2022-09-25T04:44:12;8.33;;;2.23;;
68275;SDS011;55106;51.438;-0.098;2022-09-25T04:46:37;12.10;;;2.60;;
68275;SDS011;55106;51.438;-0.098;2022-09-25T04:49:02;7.73;;;2.27;;
68275;SDS011;55106;51.438;-0.098;2022-09-25T04:51:28;10.20;;;3.10;;
68275;SDS011;55106;51.438;-0.098;2022-09-25T04:53:54;9.98;;;2.33;;
68275;SDS011;55106;51.438;-0.098;2022-09-25T04:56:20;8.23;;;2.38;;
68275;SDS011;55106;51.438;-0.098;2022-09-25T04:58:47;9.57;;;2.47;;
68275;SDS011;55106;51.438;-0.098;2022-09-25T05:01:14;6.05;;;2.40;;
68275;SDS011;55106;51.438;-0.098;2022-09-25T05:03:41;8.85;;;2.65;;
68275;SDS011;55106;51.438;-0.098;2022-09-25T05:06:07;10.00;;;2.47;;
68275;SDS011;55106;51.438;-0.098;2022-09-25T05:08:32;8.30;;;2.63;;
68275;SDS011;55106;51.438;-0.098;2022-09-25T05:10:58;9.27;;;2.30;;
68275;SDS011;55106;51.438;-0.098;2022-09-25T05:13:23;5.20;;;2.13;;
68275;SDS011;55106;51.438;-0.098;2022-09-25T05:15:48;7.43;;;2.10;;
68275;SDS011;55106;51.438;-0.098;2022-09-25T05:18:18;7.72;;;2.30;;
68275;SDS011;55106;51.438;-0.098;2022-09-25T05:20:45;7.93;;;2.20;;
68275;SDS011;55106;51.438;-0.098;2022-09-25T05:23:12;8.95;;;2.63;;
68275;SDS011;55106;51.438;-0.098;2022-09-25T05:25:37;7.57;;;2.40;;
68275;SDS011;55106;51.438;-0.098;2022-09-25T05:28:03;7.25;;;2.30;;
68275;SDS011;55106;51.438;-0.098;2022-09-25T05:30:30;9.63;;;2.30;;
68275;SDS011;55106;51.438;-0.098;2022-09-25T05:32:58;11.90;;;2.83;;
68275;SDS011;55106;51.438;-0.098;2022-09-25T05:35:24;9.43;;;2.33;;
68275;SDS011;55106;51.438;-0.098;2022-09-25T05:37:55;9.13;;;2.53;;
68275;SDS011;55106;51.438;-0.098;2022-09-25T05:40:21;8.13;;;2.45;;
68275;SDS011;55106;51.438;-0.098;2022-09-25T05:42:48;8.70;;;2.30;;
68275;SDS011;55106;51.438;-0.098;2022-09-25T05:45:14;8.37;;;2.40;;
68275;SDS011;55106;51.438;-0.098;2022-09-25T05:47:44;9.55;;;2.63;;
68275;SDS011;55106;51.438;-0.098;2022-09-25T05:50:10;7.70;;;2.50;;
68275;SDS011;55106;51.438;-0.098;2022-09-25T05:52:38;9.33;;;2.43;;
68275;SDS011;55106;51.438;-0.098;2022-09-25T05:55:03;8.25;;;2.40;;
68275;SDS011;55106;51.438;-0.098;2022-09-25T05:57:33;8.73;;;2.38;;
68275;SDS011;55106;51.438;-0.098;2022-09-25T05:59:59;9.37;;;2.57;;
68275;SDS011;55106;51.438;-0.098;2022-09-25T06:02:25;7.55;;;2.60;;
68275;SDS011;55106;51.438;-0.098;2022-09-25T06:04:51;12.00;;;2.80;;
68275;SDS011;55106;51.438;-0.098;2022-09-25T06:07:17;8.73;;;2.50;;
68275;SDS011;55106;51.438;-0.098;2022-09-25T06:09:42;10.53;;;2.77;;
68275;SDS011;55106;51.438;-0.098;2022-09-25T06:12:07;11.57;;;2.40;;
68275;SDS011;55106;51.438;-0.098;2022-09-25T06:14:33;8.03;;;2.53;;
68275;SDS011;55106;51.438;-0.098;2022-09-25T06:17:01;8.60;;;2.92;;
68275;SDS011;55106;51.438;-0.098;2022-09-25T06:19:27;8.88;;;2.40;;
68275;SDS011;55106;51.438;-0.098;2022-09-25T06:21:55;8.70;;;2.53;;
68275;SDS011;55106;51.438;-0.098;2022-09-25T06:24:23;5.93;;;2.25;;
68275;SDS011;55106;51.438;-0.098;2022-09-25T06:26:49;9.60;;;2.67;;
68275;SDS011;55106;51.438;-0.098;2022-09-25T06:29:14;7.27;;;2.47;;
68275;SDS011;55106;51.438;-0.098;2022-09-25T06:31:40;8.60;;;2.50;;
68275;SDS011;55106;51.438;-0.098;2022-09-25T06:34:07;7.22;;;2.72;;
68275;SDS011;55106;51.438;-0.098;2022-09-25T06:36:33;7.80;;;2.30;;
68275;SDS011;55106;51.438;-0.098;2022-09-25T06:38:58;8.73;;;2.50;;
68275;SDS011;55106;51.438;-0.098;2022-09-25T06:41:23;7.77;;;2.70;;
68275;SDS011;55106;51.438;-0.098;2022-09-25T06:43:49;10.90;;;2.90;;
68275;SDS011;55106;51.438;-0.098;2022-09-25T06:46:16;7.47;;;2.90;;
68275;SDS011;55106;51.438;-0.098;2022-09-25T06:48:42;13.35;;;2.95;;
68275;SDS011;55106;51.438;-0.098;2022-09-25T06:51:08;9.63;;;2.67;;
68275;SDS011;55106;51.438;-0.098;2022-09-25T06:53:33;8.02;;;2.40;;
68275;SDS011;55106;51.438;-0.098;2022-09-25T06:55:59;7.87;;;2.13;;
68275;SDS011;55106;51.438;-0.098;2022-09-25T06:58:25;7.67;;;2.27;;
68275;SDS011;55106;51.438;-0.098;2022-09-25T07:00:52;6.30;;;2.40;;
68275;SDS011;55106;51.438;-0.098;2022-09-25T07:03:18;10.27;;;2.03;;
68275;SDS011;55106;51.438;-0.098;2022-09-25T07:06:04;7.10;;;2.30;;
68275;SDS011;55106;51.438;-0.098;2022-09-25T07:08:31;8.53;;;1.87;;
68275;SDS011;55106;51.438;-0.098;2022-09-25T07:10:57;6.80;;;2.28;;
68275;SDS011;55106;51.438;-0.098;2022-09-25T07:13:24;5.18;;;1.92;;
68275;SDS011;55106;51.438;-0.098;2022-09-25T07:16:03;6.38;;;1.75;;
68275;SDS011;55106;51.438;-0.098;2022-09-25T07:18:30;7.97;;;2.17;;
68275;SDS011;55106;51.438;-0.098;2022-09-25T07:21:00;11.43;;;2.00;;
68275;SDS011;55106;51.438;-0.098;2022-09-25T07:23:30;5.95;;;2.10;;
68275;SDS011;55106;51.438;-0.098;2022-09-25T07:26:02;7.53;;;2.10;;
68275;SDS011;55106;51.438;-0.098;2022-09-25T07:28:29;6.40;;;1.85;;
68275;SDS011;55106;51.438;-0.098;2022-09-25T07:30:55;6.90;;;1.80;;
68275;SDS011;55106;51.438;-0.098;2022-09-25T07:33:20;10.93;;;2.10;;
68275;SDS011;55106;51.438;-0.098;2022-09-25T07:35:49;7.97;;;1.92;;
68275;SDS011;55106;51.438;-0.098;2022-09-25T07:38:16;5.72;;;1.90;;
68275;SDS011;55106;51.438;-0.098;2022-09-25T07:40:42;7.80;;;2.00;;
68275;SDS011;55106;51.438;-0.098;2022-09-25T07:43:07;5.63;;;1.90;;
68275;SDS011;55106;51.438;-0.098;2022-09-25T07:45:33;7.37;;;1.80;;
68275;SDS011;55106;51.438;-0.098;2022-09-25T07:47:59;7.13;;;1.73;;
68275;SDS011;55106;51.438;-0.098;2022-09-25T07:50:26;7.57;;;2.22;;
68275;SDS011;55106;51.438;-0.098;2022-09-25T07:52:53;8.20;;;1.98;;
68275;SDS011;55106;51.438;-0.098;2022-09-25T07:55:18;7.30;;;1.90;;
68275;SDS011;55106;51.438;-0.098;2022-09-25T07:57:44;8.32;;;2.22;;
68275;SDS011;55106;51.438;-0.098;2022-09-25T08:00:10;9.00;;;1.90;;
68275;SDS011;55106;51.438;-0.098;2022-09-25T08:02:36;7.35;;;1.80;;
68275;SDS011;55106;51.438;-0.098;2022-09-25T08:05:02;5.60;;;2.10;;
68275;SDS011;55106;51.438;-0.098;2022-09-25T08:07:27;4.80;;;1.67;;
68275;SDS011;55106;51.438;-0.098;2022-09-25T08:09:53;5.63;;;2.10;;
68275;SDS011;55106;51.438;-0.098;2022-09-25T08:12:19;7.73;;;1.70;;
68275;SDS011;55106;51.438;-0.098;2022-09-25T08:14:47;6.65;;;1.70;;
68275;SDS011;55106;51.438;-0.098;2022-09-25T08:17:13;7.20;;;1.67;;
68275;SDS011;55106;51.438;-0.098;2022-09-25T08:19:38;13.00;;;2.03;;
68275;SDS011;55106;51.438;-0.098;2022-09-25T08:22:04;7.22;;;1.80;;
68275;SDS011;55106;51.438;-0.098;2022-09-25T08:24:29;5.03;;;1.60;;
68275;SDS011;55106;51.438;-0.098;2022-09-25T08:26:54;7.80;;;1.77;;
68275;SDS011;55106;51.438;-0.098;2022-09-25T08:29:20;8.30;;;1.63;;
68275;SDS011;55106;51.438;-0.098;2022-09-25T08:31:45;6.30;;;1.60;;
68275;SDS011;55106;51.438;-0.098;2022-09-25T08:34:11;8.70;;;1.48;;
68275;SDS011;55106;51.438;-0.098;2022-09-25T08:36:39;6.50;;;1.80;;
68275;SDS011;55106;51.438;-0.098;2022-09-25T08:39:05;7.93;;;1.70;;
68275;SDS011;55106;51.438;-0.098;2022-09-25T08:41:31;9.40;;;1.50;;
68275;SDS011;55106;51.438;-0.098;2022-09-25T08:46:39;6.00;;;1.60;;
68275;SDS011;55106;51.438;-0.098;2022-09-25T08:49:28;5.90;;;1.70;;
68275;SDS011;55106;51.438;-0.098;2022-09-25T08:52:18;9.80;;;2.13;;
68275;SDS011;55106;51.438;-0.098;2022-09-25T08:54:45;5.63;;;1.47;;
68275;SDS011;55106;51.438;-0.098;2022-09-25T08:57:23;8.18;;;1.52;;
68275;SDS011;55106;51.438;-0.098;2022-09-25T09:00:17;6.93;;;1.65;;
68275;SDS011;55106;51.438;-0.098;2022-09-25T09:02:54;7.20;;;1.52;;
68275;SDS011;55106;51.438;-0.098;2022-09-25T09:05:24;6.20;;;1.48;;
68275;SDS011;55106;51.438;-0.098;2022-09-25T09:07:55;9.60;;;2.00;;
68275;SDS011;55106;51.438;-0.098;2022-09-25T09:10:30;5.35;;;1.33;;
68275;SDS011;55106;51.438;-0.098;2022-09-25T09:18:26;6.82;;;1.73;;
68275;SDS011;55106;51.438;-0.098;2022-09-25T09:20:55;7.00;;;2.03;;
68275;SDS011;55106;51.438;-0.098;2022-09-25T09:23:23;6.32;;;1.33;;
68275;SDS011;55106;51.438;-0.098;2022-09-25T09:31:29;7.32;;;1.40;;
68275;SDS011;55106;51.438;-0.098;2022-09-25T09:34:21;5.50;;;1.83;;
68275;SDS011;55106;51.438;-0.098;2022-09-25T09:37:06;6.15;;;1.50;;
68275;SDS011;55106;51.438;-0.098;2022-09-25T09:50:26;9.23;;;1.73;;
68275;SDS011;55106;51.438;-0.098;2022-09-25T09:53:02;5.85;;;1.70;;
68275;SDS011;55106;51.438;-0.098;2022-09-25T09:55:35;6.95;;;1.55;;
68275;SDS011;55106;51.438;-0.098;2022-09-25T09:58:03;5.45;;;1.90;;
68275;SDS011;55106;51.438;-0.098;2022-09-25T10:00:35;5.93;;;1.67;;
68275;SDS011;55106;51.438;-0.098;2022-09-25T10:03:11;4.65;;;1.55;;
68275;SDS011;55106;51.438;-0.098;2022-09-25T10:08:11;4.60;;;1.48;;
68275;SDS011;55106;51.438;-0.098;2022-09-25T10:10:38;6.85;;;1.75;;
68275;SDS011;55106;51.438;-0.098;2022-09-25T10:13:28;6.43;;;1.13;;
68275;SDS011;55106;51.438;-0.098;2022-09-25T10:18:27;6.20;;;1.60;;
68275;SDS011;55106;51.438;-0.098;2022-09-25T10:21:13;6.53;;;1.67;;
68275;SDS011;55106;51.438;-0.098;2022-09-25T10:28:48;5.70;;;1.58;;
68275;SDS011;55106;51.438;-0.098;2022-09-25T10:31:13;4.18;;;1.25;;
68275;SDS011;55106;51.438;-0.098;2022-09-25T10:33:40;4.27;;;1.07;;
68275;SDS011;55106;51.438;-0.098;2022-09-25T10:36:06;5.63;;;1.85;;
68275;SDS011;55106;51.438;-0.098;2022-09-25T10:38:39;3.67;;;1.30;;
68275;SDS011;55106;51.438;-0.098;2022-09-25T10:41:11;4.03;;;1.20;;
68275;SDS011;55106;51.438;-0.098;2022-09-25T10:43:57;4.80;;;1.40;;
68275;SDS011;55106;51.438;-0.098;2022-09-25T10:49:22;4.50;;;1.40;;
68275;SDS011;55106;51.438;-0.098;2022-09-25T10:52:12;6.18;;;1.42;;
68275;SDS011;55106;51.438;-0.098;2022-09-25T10:54:39;5.20;;;1.50;;
68275;SDS011;55106;51.438;-0.098;2022-09-25T10:57:15;4.45;;;1.20;;
68275;SDS011;55106;51.438;-0.098;2022-09-25T10:59:50;4.35;;;1.20;;
68275;SDS011;55106;51.438;-0.098;2022-09-25T11:02:36;6.27;;;1.93;;
68275;SDS011;55106;51.438;-0.098;2022-09-25T11:05:05;4.63;;;1.50;;
68275;SDS011;55106;51.438;-0.098;2022-09-25T11:07:39;4.50;;;1.40;;
68275;SDS011;55106;51.438;-0.098;2022-09-25T11:10:19;5.30;;;1.27;;
68275;SDS011;55106;51.438;-0.098;2022-09-25T11:12:46;5.05;;;1.33;;
68275;SDS011;55106;51.438;-0.098;2022-09-25T11:15:15;6.43;;;1.70;;
68275;SDS011;55106;51.438;-0.098;2022-09-25T11:17:43;6.35;;;1.50;;
68275;SDS011;55106;51.438;-0.098;2022-09-25T11:22:56;4.75;;;1.67;;
68275;SDS011;55106;51.438;-0.098;2022-09-25T11:25:39;4.90;;;1.47;;
68275;SDS011;55106;51.438;-0.098;2022-09-25T11:28:17;6.05;;;1.70;;
68275;SDS011;55106;51.438;-0.098;2022-09-25T11:30:53;5.18;;;1.20;;
68275;SDS011;55106;51.438;-0.098;2022-09-25T11:39:35;4.23;;;1.47;;
68275;SDS011;55106;51.438;-0.098;2022-09-25T11:44:58;4.95;;;1.45;;
68275;SDS011;55106;51.438;-0.098;2022-09-25T11:51:23;6.40;;;1.60;;
68275;SDS011;55106;51.438;-0.098;2022-09-25T12:01:57;5.28;;;1.50;;
68275;SDS011;55106;51.438;-0.098;2022-09-25T12:07:22;5.97;;;2.03;;
68275;SDS011;55106;51.438;-0.098;2022-09-25T12:13:20;5.45;;;1.40;;
68275;SDS011;55106;51.438;-0.098;2022-09-25T12:15:58;5.78;;;1.30;;
68275;SDS011;55106;51.438;-0.098;2022-09-25T12:26:30;5.13;;;1.23;;
68275;SDS011;55106;51.438;-0.098;2022-09-25T12:29:32;4.27;;;1.30;;
68275;SDS011;55106;51.438;-0.098;2022-09-25T12:42:55;7.20;;;1.45;;
68275;SDS011;55106;51.438;-0.098;2022-09-25T12:45:38;5.25;;;1.20;;
68275;SDS011;55106;51.438;-0.098;2022-09-25T12:48:20;5.67;;;1.33;;
68275;SDS011;55106;51.438;-0.098;2022-09-25T12:50:57;7.38;;;1.70;;
68275;SDS011;55106;51.438;-0.098;2022-09-25T12:53:32;5.07;;;1.30;;
68275;SDS011;55106;51.438;-0.098;2022-09-25T12:56:16;5.93;;;1.42;;
68275;SDS011;55106;51.438;-0.098;2022-09-25T13:13:04;5.88;;;1.90;;
68275;SDS011;55106;51.438;-0.098;2022-09-25T13:15:36;4.93;;;1.40;;
68275;SDS011;55106;51.438;-0.098;2022-09-25T13:18:04;5.90;;;2.38;;
68275;SDS011;55106;51.438;-0.098;2022-09-25T13:25:27;6.27;;;1.50;;
68275;SDS011;55106;51.438;-0.098;2022-09-25T13:27:54;6.18;;;1.42;;
68275;SDS011;55106;51.438;-0.098;2022-09-25T13:30:29;5.15;;;1.60;;
68275;SDS011;55106;51.438;-0.098;2022-09-25T13:32:56;4.30;;;1.50;;
68275;SDS011;55106;51.438;-0.098;2022-09-25T13:35:23;4.80;;;1.40;;
68275;SDS011;55106;51.438;-0.098;2022-09-25T13:37:50;5.30;;;1.60;;
68275;SDS011;55106;51.438;-0.098;2022-09-25T13:40:18;4.35;;;1.40;;
68275;SDS011;55106;51.438;-0.098;2022-09-25T13:48:50;5.68;;;1.73;;
68275;SDS011;55106;51.438;-0.098;2022-09-25T13:53:57;5.28;;;1.67;;
68275;SDS011;55106;51.438;-0.098;2022-09-25T14:06:39;5.32;;;1.67;;
68275;SDS011;55106;51.438;-0.098;2022-09-25T14:09:20;4.15;;;1.20;;
68275;SDS011;55106;51.438;-0.098;2022-09-25T14:14:44;4.45;;;2.08;;
68275;SDS011;55106;51.438;-0.098;2022-09-25T14:17:17;5.65;;;1.40;;
68275;SDS011;55106;51.438;-0.098;2022-09-25T14:19:44;4.93;;;1.20;;
68275;SDS011;55106;51.438;-0.098;2022-09-25T14:28:17;4.82;;;1.65;;
68275;SDS011;55106;51.438;-0.098;2022-09-25T14:44:55;3.70;;;1.50;;
68275;SDS011;55106;51.438;-0.098;2022-09-25T14:47:46;5.10;;;1.77;;
68275;SDS011;55106;51.438;-0.098;2022-09-25T14:50:25;5.70;;;2.03;;
68275;SDS011;55106;51.438;-0.098;2022-09-25T14:52:54;5.00;;;1.70;;
68275;SDS011;55106;51.438;-0.098;2022-09-25T14:55:24;4.93;;;1.60;;
68275;SDS011;55106;51.438;-0.098;2022-09-25T14:57:52;4.72;;;1.40;;
68275;SDS011;55106;51.438;-0.098;2022-09-25T15:00:21;5.78;;;1.40;;
68275;SDS011;55106;51.438;-0.098;2022-09-25T15:02:48;3.95;;;1.20;;
68275;SDS011;55106;51.438;-0.098;2022-09-25T15:07:48;4.57;;;1.40;;
68275;SDS011;55106;51.438;-0.098;2022-09-25T15:12:49;5.47;;;1.55;;
68275;SDS011;55106;51.438;-0.098;2022-09-25T15:15:15;4.63;;;1.92;;
68275;SDS011;55106;51.438;-0.098;2022-09-25T15:17:47;4.77;;;1.47;;
68275;SDS011;55106;51.438;-0.098;2022-09-25T15:20:17;5.57;;;1.48;;
68275;SDS011;55106;51.438;-0.098;2022-09-25T15:22:53;5.45;;;1.40;;
68275;SDS011;55106;51.438;-0.098;2022-09-25T15:25:25;3.83;;;1.20;;
68275;SDS011;55106;51.438;-0.098;2022-09-25T15:27:56;4.60;;;1.53;;
68275;SDS011;55106;51.438;-0.098;2022-09-25T15:30:24;6.13;;;1.60;;
68275;SDS011;55106;51.438;-0.098;2022-09-25T15:32:51;4.47;;;1.42;;
68275;SDS011;55106;51.438;-0.098;2022-09-25T15:35:22;5.68;;;2.05;;
68275;SDS011;55106;51.438;-0.098;2022-09-25T15:38:00;4.72;;;1.38;;
68275;SDS011;55106;51.438;-0.098;2022-09-25T15:40:36;3.77;;;1.13;;
68275;SDS011;55106;51.438;-0.098;2022-09-25T15:43:02;4.88;;;1.38;;
68275;SDS011;55106;51.438;-0.098;2022-09-25T15:45:38;4.88;;;1.60;;
68275;SDS011;55106;51.438;-0.098;2022-09-25T15:48:18;4.65;;;1.52;;
68275;SDS011;55106;51.438;-0.098;2022-09-25T15:50:45;5.45;;;1.58;;
68275;SDS011;55106;51.438;-0.098;2022-09-25T15:53:25;4.90;;;1.63;;
68275;SDS011;55106;51.438;-0.098;2022-09-25T15:58:43;5.00;;;1.55;;
68275;SDS011;55106;51.438;-0.098;2022-09-25T16:01:23;4.53;;;1.33;;
68275;SDS011;55106;51.438;-0.098;2022-09-25T16:04:19;3.92;;;1.30;;
68275;SDS011;55106;51.438;-0.098;2022-09-25T16:09:53;5.38;;;1.30;;
68275;SDS011;55106;51.438;-0.098;2022-09-25T16:14:49;5.40;;;1.65;;
68275;SDS011;55106;51.438;-0.098;2022-09-25T16:17:25;4.10;;;1.30;;
68275;SDS011;55106;51.438;-0.098;2022-09-25T16:19:57;4.43;;;2.03;;
68275;SDS011;55106;51.438;-0.098;2022-09-25T16:22:26;3.97;;;1.20;;
68275;SDS011;55106;51.438;-0.098;2022-09-25T16:24:59;3.92;;;1.20;;
68275;SDS011;55106;51.438;-0.098;2022-09-25T16:27:27;4.10;;;1.30;;
68275;SDS011;55106;51.438;-0.098;2022-09-25T16:29:57;4.70;;;1.40;;
68275;SDS011;55106;51.438;-0.098;2022-09-25T16:32:24;6.80;;;1.90;;
68275;SDS011;55106;51.438;-0.098;2022-09-25T16:34:58;4.57;;;1.50;;
68275;SDS011;55106;51.438;-0.098;2022-09-25T16:37:27;5.45;;;1.80;;
68275;SDS011;55106;51.438;-0.098;2022-09-25T16:40:29;9.02;;;1.77;;
68275;SDS011;55106;51.438;-0.098;2022-09-25T16:42:49;4.63;;;1.85;;
68275;SDS011;55106;51.438;-0.098;2022-09-25T16:45:18;5.10;;;1.37;;
68275;SDS011;55106;51.438;-0.098;2022-09-25T16:47:48;4.45;;;1.50;;
68275;SDS011;55106;51.438;-0.098;2022-09-25T16:50:14;7.03;;;1.33;;
68275;SDS011;55106;51.438;-0.098;2022-09-25T16:52:40;6.30;;;1.65;;
68275;SDS011;55106;51.438;-0.098;2022-09-25T16:55:10;5.22;;;1.95;;
68275;SDS011;55106;51.438;-0.098;2022-09-25T16:57:40;5.10;;;1.60;;
68275;SDS011;55106;51.438;-0.098;2022-09-25T17:00:06;5.97;;;1.55;;
68275;SDS011;55106;51.438;-0.098;2022-09-25T17:02:37;4.03;;;1.55;;
68275;SDS011;55106;51.438;-0.098;2022-09-25T17:05:06;4.30;;;1.60;;
68275;SDS011;55106;51.438;-0.098;2022-09-25T17:07:47;5.00;;;1.30;;
68275;SDS011;55106;51.438;-0.098;2022-09-25T17:10:15;5.00;;;1.30;;
68275;SDS011;55106;51.438;-0.098;2022-09-25T17:12:43;5.15;;;1.85;;
68275;SDS011;55106;51.438;-0.098;2022-09-25T17:15:30;4.47;;;1.40;;
68275;SDS011;55106;51.438;-0.098;2022-09-25T17:17:58;5.85;;;1.35;;
68275;SDS011;55106;51.438;-0.098;2022-09-25T17:20:26;3.93;;;1.20;;
68275;SDS011;55106;51.438;-0.098;2022-09-25T17:22:53;4.78;;;1.48;;
68275;SDS011;55106;51.438;-0.098;2022-09-25T17:28:11;4.00;;;1.30;;
68275;SDS011;55106;51.438;-0.098;2022-09-25T17:30:38;5.07;;;1.40;;
68275;SDS011;55106;51.438;-0.098;2022-09-25T17:33:04;4.97;;;1.63;;
68275;SDS011;55106;51.438;-0.098;2022-09-25T17:36:04;5.50;;;1.50;;
68275;SDS011;55106;51.438;-0.098;2022-09-25T17:38:24;4.60;;;1.88;;
68275;SDS011;55106;51.438;-0.098;2022-09-25T17:40:51;4.95;;;1.63;;
68275;SDS011;55106;51.438;-0.098;2022-09-25T17:43:20;4.28;;;1.73;;
68275;SDS011;55106;51.438;-0.098;2022-09-25T17:45:47;5.77;;;1.60;;
68275;SDS011;55106;51.438;-0.098;2022-09-25T17:48:19;4.82;;;1.85;;
68275;SDS011;55106;51.438;-0.098;2022-09-25T17:50:50;5.30;;;1.90;;
68275;SDS011;55106;51.438;-0.098;2022-09-25T17:53:17;6.88;;;1.80;;
68275;SDS011;55106;51.438;-0.098;2022-09-25T17:55:44;5.40;;;1.60;;